Watertown, WI

6:32 AM CST on December 06, 2016 (GMT -0600)
APRSWXNET | | Change Station
Active Advisory: Dense Fog Advisory Active Notice: Local Storm Report

Elev 853 ft 43.23 °N, 88.73 °W | Updated 42 minutes ago

Overcast
Overcast
32 °F
Feels Like 32 °F
N
0
Wind Variable Wind from North
Gusts 0.0 mph

Today
High -- | Low -- °F
--% Chance of Precip.
Yesterday
High -- | Low -- °F
Precip. -- in
Pressure 29.80 in
Visibility 3.0 miles
Clouds Overcast 300 ft
Windchill 32 °F
Dew Point 24 °F
Humidity 71%
Rainfall in
Snow Depth Not available.
7:12 AM 4:19 PM
Waxing Crescent, 41% visible
METAR KRYV 061215Z AUTO 00000KT 3SM BR OVC003 00/00 A2980 RMK AO2 T00000000
Pressure 29.80 in
Visibility 3.0 miles
Clouds Overcast 300 ft
Windchill 32 °F
Dew Point 24 °F
Humidity 71%
Rainfall in
Snow Depth Not available.
7:12 AM 4:19 PM
Waxing Crescent, 41% visible
METAR KRYV 061215Z AUTO 00000KT 3SM BR OVC003 00/00 A2980 RMK AO2 T00000000

10-Day Weather Forecast

Almanac

Astronomy

Dec. 06, 2016 Rise Set
Actual Time
Civil Twilight
Nautical Twilight
Astronomical Twilight
Moon
Length of Visible Light
Length of Day
Tomorrow will be .
, % of the Moon is Illuminated

Today's Extremes

State Highs State Lows

Community

WunderPhotos

Upload Photos

1,955,936 photos uploaded!

WunderBlog® & News

Nearby

Air Quality

  Air Quality AQ Index Pollutant
Not available.

Snow Depth

Station Depth Elevation

Earthquake Activity

City Distance Mag. Time & Date
Minimum magnitude displayed is 2.5.

Coastal Water Temperatures

Place Temperature

Stations

Nearby Weather Stations

Station Location Temp. Windchill Dew Point Humidity Wind Precip. Elev Updated Type
                   

Watches & Warnings

Dense Fog Advisory
Issued: 6:05 AM CST Dec. 6, 2016 – National Weather Service

... Dense fog advisory in effect until 11 am CST this morning...

The National Weather Service in Milwaukee/Sullivan has issued a
dense fog advisory... which is in effect until 11 am CST this
morning.

* Timing... areas of dense fog this morning.

* Visibility... areas of 1/4 mile or much less.

* Impacts... reduced visibilities and slippery roads from frost
formation.

Precautionary/preparedness actions...

A dense fog advisory means visibilities will frequently be
reduced to less than one quarter mile. If driving... slow down...
use your headlights... and leave plenty of distance ahead of you.